Time;durP1;ratioP1;P1;durP2;ratioP2;P2;SDS_P1;SDS_P2;PMS_P1;PMS_P2;Temp;Humidity;BMP_temperature;BMP_pressure;BME280_temperature;BME280_humidity;BME280_pressure;Samples;Min_cycle;Max_cycle;Signal;HPM_P1;HPM_P2
2023/12/16 00:00:57;;;;;;;13.38;3.63;;;8.30;99.90;;;;;;5030332;28;20045;-52
2023/12/16 00:03:23;;;;;;;12.52;3.30;;;8.30;99.90;;;;;;5030307;28;20512;-50
2023/12/16 00:05:49;;;;;;;11.80;3.38;;;8.30;99.90;;;;;;5029080;28;20443;-51
2023/12/16 00:08:16;;;;;;;14.27;4.40;;;8.20;99.90;;;;;;5029838;28;20493;-47
2023/12/16 00:10:41;;;;;;;16.95;3.55;;;8.10;99.90;;;;;;5028608;28;20069;-50
2023/12/16 00:13:07;;;;;;;19.15;3.55;;;8.30;99.90;;;;;;5029768;28;20087;-50
2023/12/16 00:15:34;;;;;;;16.08;3.80;;;8.10;99.90;;;;;;5026663;28;20136;-48
2023/12/16 00:18:00;;;;;;;10.50;3.28;;;8.00;99.90;;;;;;5028688;28;20265;-52
2023/12/16 00:20:26;;;;;;;14.57;4.00;;;8.40;99.90;;;;;;5029656;28;20044;-51
2023/12/16 00:22:51;;;;;;;8.65;2.58;;;8.00;99.90;;;;;;5029213;28;20045;-51
2023/12/16 00:25:17;;;;;;;16.10;3.40;;;8.30;99.90;;;;;;5029416;28;20049;-50
2023/12/16 00:27:43;;;;;;;9.90;3.05;;;8.00;99.90;;;;;;5029126;28;20048;-49
2023/12/16 00:30:09;;;;;;;13.98;3.13;;;8.20;99.90;;;;;;5029983;28;20045;-51
2023/12/16 00:32:34;;;;;;;9.68;3.05;;;8.00;99.90;;;;;;5030135;28;20045;-50
2023/12/16 00:35:00;;;;;;;14.13;2.78;;;8.20;99.90;;;;;;5030373;28;20041;-50
2023/12/16 00:37:26;;;;;;;15.73;2.80;;;8.20;99.90;;;;;;5030901;28;20088;-51
2023/12/16 00:39:52;;;;;;;12.30;2.95;;;8.00;99.90;;;;;;5030620;28;20436;-52
2023/12/16 00:42:17;;;;;;;13.02;2.40;;;8.00;99.90;;;;;;5027903;28;20351;-49
2023/12/16 00:44:43;;;;;;;11.23;2.95;;;8.20;99.90;;;;;;5029229;28;20387;-48
2023/12/16 00:47:09;;;;;;;13.52;2.85;;;8.20;99.90;;;;;;5029850;28;20046;-49
2023/12/16 00:49:34;;;;;;;13.55;2.40;;;8.10;99.90;;;;;;5030325;28;20045;-50
2023/12/16 00:52:00;;;;;;;13.10;2.67;;;8.20;99.90;;;;;;5030544;28;20200;-49
2023/12/16 00:54:26;;;;;;;11.93;2.80;;;8.10;99.90;;;;;;5030774;28;20119;-48
2023/12/16 00:56:52;;;;;;;15.93;3.33;;;7.80;99.90;;;;;;5029899;28;20038;-51
2023/12/16 00:59:18;;;;;;;11.13;2.35;;;8.00;99.90;;;;;;5030648;28;20481;-50
2023/12/16 01:01:43;;;;;;;10.23;2.65;;;8.00;99.90;;;;;;5030447;28;20392;-50
2023/12/16 01:04:10;;;;;;;10.65;3.00;;;7.70;99.90;;;;;;5028944;28;20096;-48
2023/12/16 01:06:35;;;;;;;15.98;3.20;;;7.80;99.90;;;;;;5028448;28;20036;-51
2023/12/16 01:09:01;;;;;;;11.15;2.65;;;7.80;99.90;;;;;;5033592;28;20049;-50
2023/12/16 01:11:27;;;;;;;9.38;3.33;;;7.70;99.90;;;;;;5032598;28;20454;-50
2023/12/16 01:13:53;;;;;;;10.73;3.10;;;7.70;99.90;;;;;;5034244;28;20481;-51
2023/12/16 01:16:18;;;;;;;15.40;3.13;;;7.70;99.90;;;;;;5034125;28;20045;-51
2023/12/16 01:18:44;;;;;;;11.57;2.85;;;7.40;99.90;;;;;;5033540;28;20038;-48
2023/12/16 01:21:10;;;;;;;13.45;3.03;;;7.40;99.90;;;;;;5034273;28;20044;-50
2023/12/16 01:23:36;;;;;;;9.63;2.80;;;7.60;99.90;;;;;;5033331;28;20167;-52
2023/12/16 01:26:03;;;;;;;11.60;2.75;;;7.30;99.90;;;;;;5033346;28;20034;-49
2023/12/16 01:28:29;;;;;;;11.73;2.83;;;7.20;99.90;;;;;;5033378;28;20381;-50
2023/12/16 01:30:56;;;;;;;9.13;2.50;;;7.50;99.90;;;;;;5033845;28;20041;-50
2023/12/16 01:33:22;;;;;;;12.13;3.33;;;7.20;99.90;;;;;;5033478;28;20052;-50
2023/12/16 01:35:48;;;;;;;16.88;3.15;;;7.10;99.90;;;;;;5033630;28;20080;-52
2023/12/16 01:38:13;;;;;;;17.38;4.10;;;7.00;99.90;;;;;;5033580;28;20126;-51
2023/12/16 01:40:39;;;;;;;11.90;2.53;;;7.50;99.90;;;;;;5033497;28;20076;-51
2023/12/16 01:43:05;;;;;;;6.78;2.17;;;7.10;99.90;;;;;;5033430;28;20562;-48
2023/12/16 01:45:30;;;;;;;16.00;2.50;;;7.00;99.90;;;;;;5030274;28;20481;-48
2023/12/16 01:47:56;;;;;;;16.52;2.70;;;7.30;99.90;;;;;;5033433;28;20095;-49
2023/12/16 01:50:23;;;;;;;14.38;2.85;;;7.20;99.90;;;;;;5033427;28;20037;-51
2023/12/16 01:52:51;;;;;;;12.50;2.70;;;7.00;99.90;;;;;;5033331;28;20468;-51
2023/12/16 01:55:17;;;;;;;17.63;2.75;;;7.10;99.90;;;;;;5033209;28;20045;-49
2023/12/16 01:57:44;;;;;;;8.35;2.60;;;7.20;99.90;;;;;;5032824;28;20041;-51
2023/12/16 02:00:11;;;;;;;13.48;2.08;;;7.10;99.90;;;;;;5033067;28;20073;-48
2023/12/16 02:02:38;;;;;;;12.85;2.80;;;7.20;99.90;;;;;;5033020;28;20049;-51
2023/12/16 02:05:04;;;;;;;12.07;2.13;;;6.90;99.90;;;;;;5032636;28;20076;-50
2023/12/16 02:07:29;;;;;;;11.70;2.50;;;7.20;99.90;;;;;;5033077;28;20072;-51
2023/12/16 02:09:55;;;;;;;11.10;2.63;;;7.20;99.90;;;;;;5032680;28;20416;-49
2023/12/16 02:12:22;;;;;;;11.05;2.15;;;7.20;99.90;;;;;;5033398;28;20041;-50
2023/12/16 02:14:48;;;;;;;15.25;2.88;;;6.80;99.90;;;;;;5033179;28;20125;-49
2023/12/16 02:17:14;;;;;;;18.33;2.60;;;7.10;99.90;;;;;;5032685;28;20124;-52
2023/12/16 02:19:41;;;;;;;16.10;3.33;;;7.10;99.90;;;;;;5031648;28;20111;-50
2023/12/16 02:22:07;;;;;;;11.45;2.95;;;7.00;99.90;;;;;;5032630;28;20049;-51
2023/12/16 02:24:36;;;;;;;19.10;3.10;;;7.00;99.90;;;;;;5032217;28;20488;-50
2023/12/16 02:27:02;;;;;;;11.88;2.97;;;6.90;99.90;;;;;;5047251;28;20393;-48
2023/12/16 02:29:28;;;;;;;21.70;3.38;;;7.00;99.90;;;;;;5032881;28;20034;-51
2023/12/16 02:31:53;;;;;;;15.45;2.97;;;7.00;99.90;;;;;;5032653;28;20137;-49
2023/12/16 02:34:19;;;;;;;11.13;2.30;;;6.80;99.90;;;;;;5032592;28;20053;-50
2023/12/16 02:36:45;;;;;;;10.35;2.40;;;6.70;99.90;;;;;;5032592;28;20049;-49
2023/12/16 02:39:10;;;;;;;13.05;2.53;;;6.80;99.90;;;;;;5032769;28;20038;-52
2023/12/16 02:41:36;;;;;;;18.20;2.92;;;6.90;99.90;;;;;;5030146;28;21256;-50
2023/12/16 02:44:03;;;;;;;8.73;2.45;;;6.70;99.90;;;;;;5027519;28;20057;-51
2023/12/16 02:46:30;;;;;;;12.02;2.40;;;6.70;99.90;;;;;;5031805;28;20048;-50
2023/12/16 02:48:56;;;;;;;13.15;2.72;;;6.70;99.90;;;;;;5031794;28;20111;-49
2023/12/16 02:51:21;;;;;;;12.27;2.60;;;6.90;99.90;;;;;;5046722;28;20033;-50
2023/12/16 02:53:47;;;;;;;11.20;2.75;;;6.80;99.90;;;;;;5032477;28;20033;-51
2023/12/16 02:56:13;;;;;;;14.75;3.35;;;6.90;99.90;;;;;;5032230;28;20358;-51
2023/12/16 02:58:39;;;;;;;24.02;3.25;;;6.70;99.90;;;;;;5032028;28;20033;-50
2023/12/16 03:01:06;;;;;;;17.10;2.90;;;7.00;99.90;;;;;;5032253;28;20037;-51
2023/12/16 03:03:31;;;;;;;14.27;2.92;;;6.80;99.90;;;;;;5030559;28;20060;-48
2023/12/16 03:06:03;;;;;;;18.13;2.60;;;6.80;99.90;;;;;;5031918;28;20365;-50
2023/12/16 03:08:28;;;;;;;17.88;3.25;;;6.70;99.90;;;;;;5030683;28;20044;-51
2023/12/16 03:10:54;;;;;;;14.30;2.35;;;6.80;99.90;;;;;;5031508;28;20118;-48
2023/12/16 03:13:20;;;;;;;16.77;3.28;;;6.80;99.90;;;;;;5031808;28;20049;-50
2023/12/16 03:15:46;;;;;;;14.20;2.88;;;6.80;99.90;;;;;;5031660;28;20041;-48
2023/12/16 03:18:11;;;;;;;10.52;2.30;;;6.90;99.90;;;;;;5032030;28;20037;-50
2023/12/16 03:20:37;;;;;;;19.10;3.25;;;7.00;99.90;;;;;;5032093;28;20092;-51
2023/12/16 03:23:03;;;;;;;14.95;2.80;;;6.80;99.90;;;;;;5031747;28;20481;-49
2023/12/16 03:25:28;;;;;;;17.23;2.92;;;7.10;99.90;;;;;;5031571;28;20037;-50
2023/12/16 03:27:54;;;;;;;13.60;2.58;;;6.80;99.90;;;;;;5031539;28;20131;-54
2023/12/16 03:30:20;;;;;;;14.68;2.40;;;7.00;99.90;;;;;;5031707;28;20057;-51
2023/12/16 03:32:46;;;;;;;14.50;2.67;;;6.70;99.90;;;;;;5030092;28;20045;-49
2023/12/16 03:35:11;;;;;;;15.32;3.67;;;6.70;99.90;;;;;;5030127;28;20489;-50
2023/12/16 03:37:37;;;;;;;15.43;2.63;;;6.70;99.90;;;;;;5031549;28;20037;-47
2023/12/16 03:40:03;;;;;;;15.60;2.65;;;6.80;99.90;;;;;;5031530;28;20095;-48
2023/12/16 03:42:29;;;;;;;15.07;2.55;;;6.60;99.90;;;;;;5031063;28;20260;-49
2023/12/16 03:44:55;;;;;;;12.75;2.65;;;6.90;99.90;;;;;;5031451;28;20103;-51
2023/12/16 03:47:20;;;;;;;13.52;2.80;;;6.90;99.90;;;;;;5029503;28;20026;-50
2023/12/16 03:49:46;;;;;;;22.42;2.88;;;6.90;99.90;;;;;;5031423;28;20037;-53
2023/12/16 03:52:12;;;;;;;18.10;2.78;;;7.00;99.90;;;;;;5031150;28;20528;-49
2023/12/16 03:54:38;;;;;;;11.05;2.03;;;6.70;99.90;;;;;;5031026;28;20401;-51
2023/12/16 03:57:05;;;;;;;14.02;2.60;;;7.00;99.90;;;;;;5029932;28;20477;-50
2023/12/16 03:59:31;;;;;;;9.75;2.28;;;7.00;99.90;;;;;;5030329;28;20045;-49
2023/12/16 04:01:56;;;;;;;14.23;2.80;;;7.00;99.90;;;;;;5029537;28;20037;-50
2023/12/16 04:04:22;;;;;;;13.85;2.60;;;6.80;99.90;;;;;;5028358;28;20048;-49
2023/12/16 04:06:48;;;;;;;11.57;2.33;;;7.10;99.90;;;;;;5046385;28;20037;-54
2023/12/16 04:09:13;;;;;;;19.48;2.83;;;7.20;99.90;;;;;;5030992;28;20052;-52
2023/12/16 04:11:46;;;;;;;19.92;2.75;;;7.10;99.90;;;;;;5031195;28;20042;-49
2023/12/16 04:14:12;;;;;;;14.60;3.10;;;6.90;99.90;;;;;;5030727;28;20497;-48
2023/12/16 04:16:37;;;;;;;12.65;3.08;;;7.20;99.90;;;;;;5031118;28;20048;-49
2023/12/16 04:19:03;;;;;;;14.75;2.45;;;6.90;99.90;;;;;;5030880;28;20065;-51
2023/12/16 04:21:29;;;;;;;19.17;3.22;;;7.30;99.90;;;;;;5031040;28;20037;-51
2023/12/16 04:23:54;;;;;;;16.38;2.70;;;7.00;99.90;;;;;;5030656;28;20037;-51
2023/12/16 04:26:20;;;;;;;15.45;2.72;;;7.00;99.90;;;;;;5028516;28;20041;-48
2023/12/16 04:28:46;;;;;;;16.40;2.67;;;7.10;99.90;;;;;;5030397;28;20046;-50
2023/12/16 04:31:16;;;;;;;12.65;2.80;;;7.30;99.90;;;;;;5030705;28;20043;-51
2023/12/16 04:33:43;;;;;;;13.35;2.83;;;6.80;99.90;;;;;;5030747;28;20107;-51
2023/12/16 04:36:15;;;;;;;17.35;3.15;;;6.70;99.90;;;;;;5030633;28;20041;-51
2023/12/16 04:38:41;;;;;;;11.82;2.80;;;6.90;99.90;;;;;;5030931;28;20579;-51
2023/12/16 04:41:11;;;;;;;17.92;2.90;;;6.80;99.90;;;;;;5030659;28;20045;-50
2023/12/16 04:43:36;;;;;;;14.60;3.05;;;6.70;99.90;;;;;;5032099;28;20711;-48
2023/12/16 04:46:03;;;;;;;16.05;3.28;;;7.00;99.90;;;;;;5033878;28;20034;-50
2023/12/16 04:48:29;;;;;;;12.93;3.00;;;6.80;99.90;;;;;;5034624;28;20038;-50
2023/12/16 04:50:54;;;;;;;18.95;4.28;;;7.00;99.90;;;;;;5033048;28;20041;-51
2023/12/16 04:53:20;;;;;;;20.13;3.65;;;6.70;99.90;;;;;;5034585;28;20124;-48
2023/12/16 04:55:46;;;;;;;19.05;3.42;;;6.60;99.90;;;;;;5034533;28;20068;-52
2023/12/16 04:58:11;;;;;;;20.88;4.07;;;6.70;99.90;;;;;;5033836;28;20135;-51
2023/12/16 05:00:37;;;;;;;14.90;3.63;;;7.10;99.90;;;;;;5034657;28;20049;-52
2023/12/16 05:03:03;;;;;;;18.63;3.90;;;6.80;99.90;;;;;;5034426;28;20124;-49
2023/12/16 05:05:29;;;;;;;18.95;4.50;;;7.20;99.90;;;;;;5034355;28;20039;-48
2023/12/16 05:07:55;;;;;;;21.60;4.10;;;6.80;99.90;;;;;;5032756;28;20128;-49
2023/12/16 05:10:20;;;;;;;20.27;4.70;;;6.70;99.90;;;;;;5033214;28;20137;-51
2023/12/16 05:12:47;;;;;;;18.33;4.22;;;7.00;99.90;;;;;;5034244;28;20041;-51
2023/12/16 05:15:13;;;;;;;17.30;3.80;;;7.00;99.90;;;;;;5034197;28;20041;-50
2023/12/16 05:17:38;;;;;;;20.75;3.70;;;6.80;99.90;;;;;;5033650;28;20104;-51
2023/12/16 05:20:05;;;;;;;13.30;4.50;;;7.10;99.90;;;;;;5034357;28;20033;-51
2023/12/16 05:22:33;;;;;;;19.65;3.63;;;7.10;99.90;;;;;;5033551;28;20038;-51
2023/12/16 05:25:03;;;;;;;17.42;3.85;;;7.00;99.90;;;;;;5033187;28;20073;-50
2023/12/16 05:27:30;;;;;;;20.52;4.32;;;6.60;99.90;;;;;;5033469;28;20582;-51
2023/12/16 05:29:57;;;;;;;25.92;4.35;;;6.60;99.90;;;;;;5033763;28;20048;-51
2023/12/16 05:32:23;;;;;;;15.88;4.80;;;6.70;99.90;;;;;;5033653;28;20046;-49
2023/12/16 05:34:51;;;;;;;34.45;5.55;;;6.60;99.90;;;;;;5033557;28;20041;-51
2023/12/16 05:37:17;;;;;;;24.15;4.80;;;7.00;99.90;;;;;;5033811;28;20124;-51
2023/12/16 05:39:42;;;;;;;24.35;5.20;;;6.60;99.90;;;;;;5033707;28;20124;-51
2023/12/16 05:42:09;;;;;;;19.33;4.43;;;7.30;99.90;;;;;;5033215;28;22020;-51
2023/12/16 05:44:35;;;;;;;20.55;4.60;;;6.50;99.90;;;;;;5031550;28;20049;-49
2023/12/16 05:47:01;;;;;;;18.55;5.15;;;6.60;99.90;;;;;;5033474;28;20103;-49
2023/12/16 05:49:27;;;;;;;24.80;5.20;;;6.90;99.90;;;;;;5032863;28;20038;-49
2023/12/16 05:51:54;;;;;;;20.63;5.43;;;6.80;99.90;;;;;;5033500;28;20048;-52
2023/12/16 05:54:19;;;;;;;19.23;4.82;;;6.50;99.90;;;;;;5032024;28;20043;-50
2023/12/16 05:56:45;;;;;;;19.08;4.55;;;6.90;99.90;;;;;;5032892;28;20120;-49
2023/12/16 05:59:11;;;;;;;15.10;4.85;;;6.90;99.90;;;;;;5033379;28;20038;-47
2023/12/16 06:01:36;;;;;;;20.73;5.72;;;6.70;99.90;;;;;;5033491;28;20030;-52
2023/12/16 06:04:02;;;;;;;21.95;4.97;;;6.60;99.90;;;;;;5033063;28;20052;-49
2023/12/16 06:06:28;;;;;;;18.08;5.43;;;6.40;99.90;;;;;;5031404;28;20041;-51
2023/12/16 06:08:53;;;;;;;22.90;5.28;;;6.30;99.90;;;;;;5033023;28;20068;-51
2023/12/16 06:11:21;;;;;;;18.27;4.47;;;6.80;99.90;;;;;;5032622;28;20041;-51
2023/12/16 06:13:48;;;;;;;19.65;4.78;;;6.90;99.90;;;;;;5032928;28;20045;-53
2023/12/16 06:16:16;;;;;;;26.13;5.60;;;6.70;99.90;;;;;;5032930;28;20045;-51
2023/12/16 06:18:43;;;;;;;22.88;5.30;;;6.80;99.90;;;;;;5047897;28;20041;-51
2023/12/16 06:21:09;;;;;;;17.90;4.68;;;6.90;99.90;;;;;;5032895;28;20572;-48
2023/12/16 06:23:35;;;;;;;27.63;5.07;;;6.40;99.90;;;;;;5032562;28;20120;-49
2023/12/16 06:26:01;;;;;;;22.77;5.82;;;7.00;99.90;;;;;;5032920;28;20163;-49
2023/12/16 06:28:27;;;;;;;25.02;5.55;;;6.50;99.90;;;;;;5031843;28;20542;-47
2023/12/16 06:30:52;;;;;;;25.58;5.53;;;6.60;99.90;;;;;;5032614;28;20033;-51
2023/12/16 06:33:18;;;;;;;16.67;4.65;;;7.30;99.90;;;;;;5032462;28;20501;-49
2023/12/16 06:35:44;;;;;;;18.55;4.70;;;6.30;99.90;;;;;;5032817;28;20041;-50
2023/12/16 06:38:10;;;;;;;28.15;5.82;;;6.70;99.90;;;;;;5031245;28;20041;-51
2023/12/16 06:40:36;;;;;;;26.30;6.03;;;6.40;99.90;;;;;;5032869;28;20455;-50
2023/12/16 06:43:02;;;;;;;27.15;5.80;;;6.70;99.90;;;;;;5032230;28;20045;-50
2023/12/16 06:45:28;;;;;;;28.90;6.80;;;6.70;99.90;;;;;;5032584;28;20029;-50
2023/12/16 06:47:54;;;;;;;25.33;5.93;;;6.80;99.90;;;;;;5032278;28;20033;-51
2023/12/16 06:50:20;;;;;;;24.10;5.05;;;6.80;99.90;;;;;;5032393;28;20030;-50
2023/12/16 06:52:45;;;;;;;20.90;5.13;;;6.60;99.90;;;;;;5031341;28;20045;-52
2023/12/16 06:55:11;;;;;;;21.05;5.72;;;6.50;99.90;;;;;;5032183;28;20037;-49
2023/12/16 06:57:37;;;;;;;24.17;6.30;;;6.70;99.90;;;;;;5031500;28;20091;-50
2023/12/16 07:00:03;;;;;;;25.05;5.90;;;6.40;99.90;;;;;;5047557;28;20116;-50
2023/12/16 07:02:28;;;;;;;27.45;6.95;;;6.20;99.90;;;;;;5031878;28;20049;-51
2023/12/16 07:04:54;;;;;;;24.58;6.72;;;6.50;99.90;;;;;;5030150;28;20051;-50
2023/12/16 07:07:19;;;;;;;23.05;6.22;;;6.50;99.90;;;;;;5032108;28;20072;-49
2023/12/16 07:09:45;;;;;;;27.67;6.90;;;6.10;99.90;;;;;;5047248;28;20037;-49
2023/12/16 07:12:11;;;;;;;23.58;5.65;;;6.20;99.90;;;;;;5031966;28;20750;-52
2023/12/16 07:14:38;;;;;;;22.77;6.47;;;6.90;99.90;;;;;;5031901;28;20111;-50
2023/12/16 07:17:04;;;;;;;26.98;6.45;;;6.70;99.90;;;;;;5031194;28;20091;-48
2023/12/16 07:19:31;;;;;;;26.17;6.25;;;6.70;99.90;;;;;;5031748;28;20041;-50
2023/12/16 07:21:57;;;;;;;25.20;6.57;;;6.90;99.90;;;;;;5031363;28;20044;-49
2023/12/16 07:24:23;;;;;;;35.00;7.63;;;6.00;99.90;;;;;;5031111;28;20094;-51
2023/12/16 07:26:49;;;;;;;27.48;6.93;;;6.20;99.90;;;;;;5031046;28;20679;-51
2023/12/16 07:29:16;;;;;;;29.25;6.35;;;6.20;99.90;;;;;;5031662;28;20037;-51
2023/12/16 07:31:49;;;;;;;24.45;6.30;;;6.90;99.90;;;;;;5031763;28;20034;-50
2023/12/16 07:34:15;;;;;;;25.67;6.95;;;6.60;99.90;;;;;;5030428;28;20051;-48
2023/12/16 07:36:41;;;;;;;24.33;6.82;;;6.60;99.90;;;;;;5031093;28;20084;-52
2023/12/16 07:39:07;;;;;;;23.58;7.03;;;6.20;99.90;;;;;;5030454;28;20493;-57
2023/12/16 07:41:34;;;;;;;29.85;6.70;;;6.10;99.90;;;;;;5030800;28;20508;-47
2023/12/16 07:44:01;;;;;;;33.25;7.45;;;6.20;99.90;;;;;;5026176;28;20092;-50
2023/12/16 07:46:28;;;;;;;26.80;8.15;;;6.50;99.90;;;;;;5027363;28;20346;-51
2023/12/16 07:48:53;;;;;;;27.48;6.80;;;6.20;99.90;;;;;;5030384;28;20436;-48
2023/12/16 07:51:19;;;;;;;26.38;7.15;;;6.50;99.90;;;;;;5030964;28;20121;-51
2023/12/16 07:53:48;;;;;;;27.33;6.60;;;6.90;99.90;;;;;;5020877;28;20045;-50
2023/12/16 07:56:24;;;;;;;34.95;7.07;;;6.70;99.90;;;;;;5019415;28;20531;-49
2023/12/16 07:58:51;;;;;;;25.33;6.57;;;7.10;99.90;;;;;;5022687;28;20116;-46
2023/12/16 08:01:18;;;;;;;30.38;6.53;;;6.50;99.90;;;;;;5019752;28;20120;-49
2023/12/16 08:03:44;;;;;;;37.08;8.20;;;7.20;99.90;;;;;;5020281;28;23551;-49
2023/12/16 08:06:10;;;;;;;28.30;6.95;;;6.70;99.90;;;;;;5022448;28;20037;-48
2023/12/16 08:08:40;;;;;;;28.30;7.63;;;6.70;99.90;;;;;;5020651;28;20040;-49
2023/12/16 08:11:06;;;;;;;29.52;7.72;;;7.30;99.90;;;;;;5020138;28;20349;-49
2023/12/16 08:13:32;;;;;;;22.27;5.85;;;7.00;99.90;;;;;;5022903;28;20124;-51
2023/12/16 08:15:58;;;;;;;31.05;7.05;;;7.40;99.90;;;;;;5021254;28;20065;-51
2023/12/16 08:18:25;;;;;;;32.15;7.43;;;7.10;99.90;;;;;;5021499;28;20130;-50
2023/12/16 08:20:50;;;;;;;21.48;6.57;;;7.40;99.90;;;;;;5018873;28;20056;-49
2023/12/16 08:23:17;;;;;;;36.28;8.30;;;6.80;99.90;;;;;;5021252;28;20033;-51
2023/12/16 08:25:42;;;;;;;23.95;6.43;;;7.80;99.90;;;;;;5022422;28;20088;-52
2023/12/16 08:28:08;;;;;;;33.25;6.40;;;7.60;99.90;;;;;;5021336;28;20081;-52
2023/12/16 08:30:34;;;;;;;29.85;6.53;;;7.00;99.90;;;;;;5020991;28;20073;-49
2023/12/16 08:33:00;;;;;;;24.00;7.13;;;7.60;99.90;;;;;;5022874;28;20044;-51
2023/12/16 08:35:27;;;;;;;24.10;7.15;;;7.60;99.90;;;;;;5021036;28;20139;-50
2023/12/16 08:37:55;;;;;;;22.77;7.18;;;7.70;99.90;;;;;;5021606;28;20500;-50
2023/12/16 08:40:21;;;;;;;23.33;6.97;;;7.20;99.90;;;;;;5020844;28;20037;-49
2023/12/16 08:42:46;;;;;;;28.90;7.32;;;7.40;99.90;;;;;;5021998;28;20492;-49
2023/12/16 08:45:13;;;;;;;32.00;8.52;;;7.50;99.90;;;;;;5020570;28;20041;-51
2023/12/16 08:47:39;;;;;;;33.63;6.97;;;7.90;99.90;;;;;;5009148;28;20034;-47
2023/12/16 08:50:06;;;;;;;27.67;7.50;;;7.20;99.90;;;;;;5021961;28;20033;-51
2023/12/16 08:52:33;;;;;;;29.63;6.95;;;7.30;99.90;;;;;;5021135;28;20105;-50
2023/12/16 08:54:58;;;;;;;37.17;7.70;;;7.90;99.90;;;;;;5016522;28;20564;-51
2023/12/16 08:57:25;;;;;;;25.58;6.68;;;8.10;99.90;;;;;;5021037;28;20037;-50
2023/12/16 08:59:50;;;;;;;29.15;7.18;;;7.90;99.90;;;;;;5019809;28;20534;-47
2023/12/16 09:02:16;;;;;;;28.05;7.05;;;7.50;99.90;;;;;;5018782;28;20180;-50
2023/12/16 09:04:42;;;;;;;32.30;7.47;;;7.70;99.90;;;;;;5021180;28;20029;-49
2023/12/16 09:07:08;;;;;;;28.98;6.85;;;7.60;99.90;;;;;;5021196;28;20038;-49
2023/12/16 09:09:33;;;;;;;21.00;6.50;;;7.50;99.90;;;;;;5019485;28;20025;-48
2023/12/16 09:11:59;;;;;;;31.23;7.93;;;7.70;99.90;;;;;;5021830;28;20123;-50
2023/12/16 09:14:25;;;;;;;31.15;7.97;;;7.90;99.90;;;;;;5018317;28;20033;-51
2023/12/16 09:16:51;;;;;;;33.00;7.82;;;8.10;99.90;;;;;;5020392;28;20124;-48
2023/12/16 09:19:16;;;;;;;24.70;6.38;;;7.70;99.90;;;;;;5017427;28;20192;-50
2023/12/16 09:21:42;;;;;;;32.25;7.20;;;7.90;99.90;;;;;;5019212;28;20037;-49
2023/12/16 09:24:09;;;;;;;31.35;6.53;;;8.00;99.90;;;;;;5020828;28;20503;-50
2023/12/16 09:26:34;;;;;;;23.42;6.00;;;7.60;99.90;;;;;;5020962;28;20064;-48
2023/12/16 09:29:02;;;;;;;30.02;7.63;;;7.60;99.90;;;;;;5023195;28;20065;-50
2023/12/16 09:31:28;;;;;;;30.05;8.07;;;7.90;99.90;;;;;;5024991;28;20044;-50
2023/12/16 09:33:53;;;;;;;23.67;6.35;;;7.70;99.90;;;;;;5023952;28;20037;-51
2023/12/16 09:36:19;;;;;;;43.30;7.50;;;7.70;99.90;;;;;;5024270;28;20045;-49
2023/12/16 09:38:45;;;;;;;32.38;9.77;;;8.30;99.90;;;;;;5024468;28;20095;-51
2023/12/16 09:41:25;;;;;;;30.13;7.10;;;7.80;99.90;;;;;;5024898;28;20057;-52
2023/12/16 09:43:53;;;;;;;38.75;8.50;;;8.20;99.90;;;;;;5023387;28;20091;-52
2023/12/16 09:46:35;;;;;;;29.50;7.82;;;8.40;99.90;;;;;;5025106;28;20128;-49
2023/12/16 09:49:00;;;;;;;30.88;6.93;;;7.70;99.90;;;;;;5024869;28;20049;-53
2023/12/16 09:51:26;;;;;;;35.72;7.65;;;8.10;99.90;;;;;;5022730;28;20026;-51
2023/12/16 09:53:53;;;;;;;24.92;7.18;;;7.70;99.90;;;;;;5022807;28;20041;-53
2023/12/16 09:56:19;;;;;;;37.72;8.27;;;8.30;99.90;;;;;;5024193;28;20049;-52
2023/12/16 09:58:49;;;;;;;36.33;7.38;;;8.30;99.90;;;;;;5023020;28;20046;-51
2023/12/16 10:01:18;;;;;;;38.30;7.50;;;7.70;99.90;;;;;;5024293;28;20545;-51
2023/12/16 10:03:46;;;;;;;39.58;7.63;;;8.40;99.90;;;;;;5024670;28;20401;-53
2023/12/16 10:06:12;;;;;;;27.80;7.93;;;8.10;99.90;;;;;;5023096;28;20037;-50
2023/12/16 10:08:40;;;;;;;36.70;7.63;;;7.80;99.90;;;;;;5024129;28;20033;-49
2023/12/16 10:11:06;;;;;;;29.25;7.50;;;8.20;99.90;;;;;;5022509;28;20041;-48
2023/12/16 10:13:33;;;;;;;33.13;8.80;;;8.40;99.90;;;;;;5021797;28;20386;-51
2023/12/16 10:15:59;;;;;;;37.40;8.65;;;7.80;99.90;;;;;;5024347;28;20083;-49
2023/12/16 10:18:29;;;;;;;41.50;9.52;;;7.90;99.90;;;;;;5022576;28;20038;-50
2023/12/16 10:20:57;;;;;;;47.15;9.23;;;8.40;99.90;;;;;;5020824;28;20044;-47
2023/12/16 10:23:23;;;;;;;42.65;9.68;;;8.40;99.90;;;;;;5022660;28;20038;-51
2023/12/16 10:25:50;;;;;;;37.65;9.63;;;7.90;99.90;;;;;;5022136;28;20046;-49
2023/12/16 10:28:18;;;;;;;37.83;9.57;;;8.00;99.90;;;;;;5022093;28;20033;-49
2023/12/16 10:30:44;;;;;;;44.58;9.93;;;8.50;99.90;;;;;;5021882;28;20135;-47
2023/12/16 10:33:10;;;;;;;36.58;10.40;;;7.70;99.90;;;;;;5024020;28;20065;-48
2023/12/16 10:35:37;;;;;;;51.75;12.15;;;7.80;99.90;;;;;;5021572;28;20080;-50
2023/12/16 10:38:04;;;;;;;42.03;11.30;;;7.80;99.90;;;;;;5022162;28;20046;-49
2023/12/16 10:40:31;;;;;;;51.25;12.35;;;8.50;99.90;;;;;;5021000;28;20512;-51
2023/12/16 10:42:57;;;;;;;45.03;11.48;;;7.80;99.90;;;;;;5021301;28;20061;-49
2023/12/16 10:45:25;;;;;;;45.05;11.13;;;8.50;99.90;;;;;;5022044;28;20500;-51
2023/12/16 10:47:56;;;;;;;64.60;13.60;;;7.80;99.90;;;;;;5021514;28;20040;-49
2023/12/16 10:50:25;;;;;;;40.08;11.50;;;8.10;99.90;;;;;;5022563;28;20081;-48
2023/12/16 10:52:56;;;;;;;54.65;13.43;;;8.50;99.90;;;;;;5020856;28;20083;-49
2023/12/16 10:55:31;;;;;;;56.63;12.73;;;7.80;99.90;;;;;;5023594;28;20033;-51
2023/12/16 10:58:16;;;;;;;52.35;12.63;;;7.80;99.90;;;;;;5018565;28;20085;-50
2023/12/16 11:00:45;;;;;;;64.85;14.63;;;8.10;99.90;;;;;;5022440;28;20048;-46
2023/12/16 11:03:22;;;;;;;57.67;14.43;;;8.50;99.90;;;;;;5020997;28;20543;-51
2023/12/16 11:05:56;;;;;;;66.60;15.95;;;8.60;99.90;;;;;;5005103;28;20073;-52
2023/12/16 11:08:22;;;;;;;60.42;16.98;;;8.40;99.90;;;;;;5021899;28;20026;-49
2023/12/16 11:10:49;;;;;;;63.17;16.80;;;8.00;99.90;;;;;;5022368;28;20045;-49
2023/12/16 11:13:16;;;;;;;70.18;16.92;;;8.70;99.90;;;;;;5021012;28;20061;-49
2023/12/16 11:15:42;;;;;;;72.80;17.40;;;8.10;99.90;;;;;;5020567;28;20037;-49
2023/12/16 11:18:16;;;;;;;69.30;17.77;;;8.00;99.90;;;;;;5021508;28;20033;-52
2023/12/16 11:20:49;;;;;;;75.20;19.05;;;8.10;99.90;;;;;;5022376;28;20035;-48
2023/12/16 11:23:18;;;;;;;80.97;18.00;;;8.10;99.90;;;;;;5022389;28;20080;-52
2023/12/16 11:25:45;;;;;;;85.15;19.63;;;8.00;99.90;;;;;;5021799;28;20341;-51
2023/12/16 11:28:14;;;;;;;85.80;19.80;;;8.00;99.90;;;;;;5021544;28;20080;-50
2023/12/16 11:30:41;;;;;;;92.95;19.33;;;8.10;99.90;;;;;;5023117;28;20099;-50
2023/12/16 11:33:07;;;;;;;87.25;21.90;;;8.90;99.90;;;;;;5021905;28;20099;-47
2023/12/16 11:35:36;;;;;;;94.20;19.88;;;8.80;99.90;;;;;;5022229;28;20033;-50
2023/12/16 11:38:02;;;;;;;97.72;21.67;;;8.10;99.90;;;;;;5020180;28;20045;-49
2023/12/16 11:40:47;;;;;;;93.38;20.85;;;8.20;99.90;;;;;;5022953;28;20044;-49
2023/12/16 11:43:13;;;;;;;62.40;17.88;;;8.80;99.90;;;;;;5020961;28;20063;-52
2023/12/16 11:45:43;;;;;;;112.10;22.45;;;9.00;99.90;;;;;;5019578;28;20320;-50
2023/12/16 11:48:16;;;;;;;102.82;23.15;;;8.50;99.90;;;;;;5021997;28;20029;-47
2023/12/16 11:50:44;;;;;;;99.55;23.90;;;8.60;99.90;;;;;;5022532;28;20033;-50
2023/12/16 11:53:12;;;;;;;102.22;24.23;;;8.90;99.90;;;;;;5023003;28;20081;-50
2023/12/16 11:55:38;;;;;;;103.75;22.83;;;8.30;99.90;;;;;;5022425;28;20047;-48
2023/12/16 11:58:04;;;;;;;112.43;23.40;;;8.30;99.90;;;;;;5020799;28;20037;-49
2023/12/16 12:00:30;;;;;;;114.55;25.02;;;8.30;99.90;;;;;;5022233;28;20037;-51
2023/12/16 12:02:59;;;;;;;105.05;25.48;;;8.60;99.90;;;;;;5021958;28;20132;-51
2023/12/16 12:05:26;;;;;;;115.05;25.35;;;9.10;99.90;;;;;;5021526;28;20045;-48
2023/12/16 12:07:52;;;;;;;116.80;26.55;;;9.10;99.90;;;;;;5019834;28;20116;-51
2023/12/16 12:10:18;;;;;;;126.15;27.63;;;8.50;99.90;;;;;;5019998;28;20529;-48
2023/12/16 12:12:44;;;;;;;107.75;25.27;;;9.10;99.90;;;;;;5018795;28;20572;-51
2023/12/16 12:15:10;;;;;;;128.77;27.25;;;8.90;99.90;;;;;;5017853;28;20040;-49
2023/12/16 12:17:36;;;;;;;95.70;24.40;;;9.20;99.90;;;;;;5015033;28;20397;-48
2023/12/16 12:20:04;;;;;;;97.80;26.13;;;9.00;99.90;;;;;;5015629;28;20056;-52
2023/12/16 12:22:30;;;;;;;110.25;27.45;;;9.10;99.90;;;;;;5014866;28;20037;-53
2023/12/16 12:24:57;;;;;;;113.45;26.95;;;9.20;99.90;;;;;;5016680;28;20086;-49
2023/12/16 12:27:23;;;;;;;108.80;25.95;;;8.60;99.90;;;;;;5017705;28;20060;-48
2023/12/16 12:29:56;;;;;;;141.32;26.90;;;8.60;99.90;;;;;;5015962;28;20021;-52
2023/12/16 12:32:23;;;;;;;118.30;27.08;;;8.60;99.90;;;;;;5015624;28;20029;-52
2023/12/16 12:35:07;;;;;;;120.75;28.80;;;9.30;99.90;;;;;;5016482;28;20029;-50
2023/12/16 12:37:40;;;;;;;113.72;27.88;;;9.30;99.90;;;;;;5017218;28;20033;-50
2023/12/16 12:40:12;;;;;;;110.78;25.88;;;9.30;99.90;;;;;;5012604;28;20044;-49
2023/12/16 12:43:00;;;;;;;98.63;25.25;;;8.90;99.90;;;;;;5019675;28;20089;-49